sensor_id;sensor_type;location;lat;lon;timestamp;P1;durP1;ratioP1;P2;durP2;ratioP2
31770;SDS011;18343;50.152;8.182;2023-05-31T00:02:44;10.25;;;3.72;;
31770;SDS011;18343;50.152;8.182;2023-05-31T00:05:31;11.63;;;3.63;;
31770;SDS011;18343;50.152;8.182;2023-05-31T00:08:18;11.65;;;3.50;;
31770;SDS011;18343;50.152;8.182;2023-05-31T00:11:02;7.90;;;2.92;;
31770;SDS011;18343;50.152;8.182;2023-05-31T00:13:47;11.93;;;4.13;;
31770;SDS011;18343;50.152;8.182;2023-05-31T00:16:32;13.00;;;3.55;;
31770;SDS011;18343;50.152;8.182;2023-05-31T00:19:16;9.85;;;3.25;;
31770;SDS011;18343;50.152;8.182;2023-05-31T00:22:01;10.05;;;3.63;;
31770;SDS011;18343;50.152;8.182;2023-05-31T00:24:47;6.28;;;3.20;;
31770;SDS011;18343;50.152;8.182;2023-05-31T00:27:31;12.55;;;3.22;;
31770;SDS011;18343;50.152;8.182;2023-05-31T00:30:16;10.95;;;3.17;;
31770;SDS011;18343;50.152;8.182;2023-05-31T00:33:01;12.18;;;3.33;;
31770;SDS011;18343;50.152;8.182;2023-05-31T00:35:48;11.18;;;4.20;;
31770;SDS011;18343;50.152;8.182;2023-05-31T00:38:32;11.75;;;3.25;;
31770;SDS011;18343;50.152;8.182;2023-05-31T00:41:18;11.75;;;3.40;;
31770;SDS011;18343;50.152;8.182;2023-05-31T00:44:03;12.60;;;3.90;;
31770;SDS011;18343;50.152;8.182;2023-05-31T00:46:47;10.20;;;3.25;;
31770;SDS011;18343;50.152;8.182;2023-05-31T00:49:34;9.73;;;3.50;;
31770;SDS011;18343;50.152;8.182;2023-05-31T00:52:19;15.68;;;3.40;;
31770;SDS011;18343;50.152;8.182;2023-05-31T00:55:04;13.23;;;3.47;;
31770;SDS011;18343;50.152;8.182;2023-05-31T00:57:54;11.07;;;3.92;;
31770;SDS011;18343;50.152;8.182;2023-05-31T01:00:57;7.82;;;3.42;;
31770;SDS011;18343;50.152;8.182;2023-05-31T01:03:42;10.35;;;3.75;;
31770;SDS011;18343;50.152;8.182;2023-05-31T01:06:27;10.32;;;3.10;;
31770;SDS011;18343;50.152;8.182;2023-05-31T01:09:12;10.73;;;3.60;;
31770;SDS011;18343;50.152;8.182;2023-05-31T01:11:58;9.43;;;3.53;;
31770;SDS011;18343;50.152;8.182;2023-05-31T01:15:01;10.05;;;3.75;;
31770;SDS011;18343;50.152;8.182;2023-05-31T01:17:59;13.38;;;3.83;;
31770;SDS011;18343;50.152;8.182;2023-05-31T01:20:50;13.77;;;3.65;;
31770;SDS011;18343;50.152;8.182;2023-05-31T01:23:41;10.77;;;3.92;;
31770;SDS011;18343;50.152;8.182;2023-05-31T01:26:43;9.27;;;3.60;;
31770;SDS011;18343;50.152;8.182;2023-05-31T01:29:30;7.50;;;3.53;;
31770;SDS011;18343;50.152;8.182;2023-05-31T01:32:18;8.02;;;3.40;;
31770;SDS011;18343;50.152;8.182;2023-05-31T01:35:05;10.85;;;3.85;;
31770;SDS011;18343;50.152;8.182;2023-05-31T01:37:51;8.60;;;3.42;;
31770;SDS011;18343;50.152;8.182;2023-05-31T01:40:35;9.13;;;3.70;;
31770;SDS011;18343;50.152;8.182;2023-05-31T01:43:22;9.32;;;3.70;;
31770;SDS011;18343;50.152;8.182;2023-05-31T01:46:09;10.50;;;4.47;;
31770;SDS011;18343;50.152;8.182;2023-05-31T01:48:56;12.00;;;4.57;;
31770;SDS011;18343;50.152;8.182;2023-05-31T01:51:42;12.32;;;4.88;;
31770;SDS011;18343;50.152;8.182;2023-05-31T01:54:28;9.98;;;4.00;;
31770;SDS011;18343;50.152;8.182;2023-05-31T01:57:13;14.60;;;4.25;;
31770;SDS011;18343;50.152;8.182;2023-05-31T02:00:00;9.68;;;4.00;;
31770;SDS011;18343;50.152;8.182;2023-05-31T02:02:45;9.07;;;3.92;;
31770;SDS011;18343;50.152;8.182;2023-05-31T02:05:32;9.63;;;4.43;;
31770;SDS011;18343;50.152;8.182;2023-05-31T02:08:19;9.27;;;3.83;;
31770;SDS011;18343;50.152;8.182;2023-05-31T02:11:04;9.02;;;4.43;;
31770;SDS011;18343;50.152;8.182;2023-05-31T02:13:49;11.35;;;3.63;;
31770;SDS011;18343;50.152;8.182;2023-05-31T02:16:35;10.65;;;3.90;;
31770;SDS011;18343;50.152;8.182;2023-05-31T02:19:19;12.98;;;4.45;;
31770;SDS011;18343;50.152;8.182;2023-05-31T02:22:04;9.32;;;3.75;;
31770;SDS011;18343;50.152;8.182;2023-05-31T02:24:49;8.43;;;4.05;;
31770;SDS011;18343;50.152;8.182;2023-05-31T02:27:33;7.05;;;3.53;;
31770;SDS011;18343;50.152;8.182;2023-05-31T02:30:18;9.23;;;4.03;;
31770;SDS011;18343;50.152;8.182;2023-05-31T02:33:05;13.57;;;3.83;;
31770;SDS011;18343;50.152;8.182;2023-05-31T02:35:50;9.90;;;4.32;;
31770;SDS011;18343;50.152;8.182;2023-05-31T02:38:35;11.38;;;3.90;;
31770;SDS011;18343;50.152;8.182;2023-05-31T02:41:19;7.80;;;4.00;;
31770;SDS011;18343;50.152;8.182;2023-05-31T02:44:04;10.73;;;4.85;;
31770;SDS011;18343;50.152;8.182;2023-05-31T02:46:48;10.93;;;4.45;;
31770;SDS011;18343;50.152;8.182;2023-05-31T02:49:34;14.90;;;4.43;;
31770;SDS011;18343;50.152;8.182;2023-05-31T02:52:19;13.63;;;3.97;;
31770;SDS011;18343;50.152;8.182;2023-05-31T02:55:04;12.93;;;4.18;;
31770;SDS011;18343;50.152;8.182;2023-05-31T02:57:49;12.10;;;4.45;;
31770;SDS011;18343;50.152;8.182;2023-05-31T03:00:34;9.15;;;4.40;;
31770;SDS011;18343;50.152;8.182;2023-05-31T03:03:19;14.15;;;4.10;;
31770;SDS011;18343;50.152;8.182;2023-05-31T03:06:05;7.68;;;3.53;;
31770;SDS011;18343;50.152;8.182;2023-05-31T03:08:50;8.90;;;4.38;;
31770;SDS011;18343;50.152;8.182;2023-05-31T03:11:34;11.55;;;4.30;;
31770;SDS011;18343;50.152;8.182;2023-05-31T03:14:19;14.55;;;4.45;;
31770;SDS011;18343;50.152;8.182;2023-05-31T03:17:03;8.52;;;3.83;;
31770;SDS011;18343;50.152;8.182;2023-05-31T03:19:48;13.00;;;3.80;;
31770;SDS011;18343;50.152;8.182;2023-05-31T03:22:37;9.85;;;4.45;;
31770;SDS011;18343;50.152;8.182;2023-05-31T03:25:21;12.90;;;4.28;;
31770;SDS011;18343;50.152;8.182;2023-05-31T03:28:06;8.32;;;4.50;;
31770;SDS011;18343;50.152;8.182;2023-05-31T03:30:51;10.68;;;4.47;;
31770;SDS011;18343;50.152;8.182;2023-05-31T03:33:35;9.25;;;4.65;;
31770;SDS011;18343;50.152;8.182;2023-05-31T03:36:20;13.00;;;4.78;;
31770;SDS011;18343;50.152;8.182;2023-05-31T03:39:06;13.95;;;5.25;;
31770;SDS011;18343;50.152;8.182;2023-05-31T03:41:54;7.93;;;4.45;;
31770;SDS011;18343;50.152;8.182;2023-05-31T03:44:38;11.68;;;5.00;;
31770;SDS011;18343;50.152;8.182;2023-05-31T03:47:23;13.27;;;4.78;;
31770;SDS011;18343;50.152;8.182;2023-05-31T03:50:07;7.82;;;4.13;;
31770;SDS011;18343;50.152;8.182;2023-05-31T03:52:53;7.90;;;4.70;;
31770;SDS011;18343;50.152;8.182;2023-05-31T03:55:39;20.60;;;10.63;;
31770;SDS011;18343;50.152;8.182;2023-05-31T03:58:23;13.95;;;6.78;;
31770;SDS011;18343;50.152;8.182;2023-05-31T04:01:08;12.40;;;5.30;;
31770;SDS011;18343;50.152;8.182;2023-05-31T04:03:53;13.20;;;4.70;;
31770;SDS011;18343;50.152;8.182;2023-05-31T04:06:37;9.52;;;4.20;;
31770;SDS011;18343;50.152;8.182;2023-05-31T04:09:22;10.27;;;4.70;;
31770;SDS011;18343;50.152;8.182;2023-05-31T04:12:08;13.30;;;5.65;;
31770;SDS011;18343;50.152;8.182;2023-05-31T04:14:53;10.68;;;4.90;;
31770;SDS011;18343;50.152;8.182;2023-05-31T04:17:37;12.90;;;5.00;;
31770;SDS011;18343;50.152;8.182;2023-05-31T04:20:24;13.90;;;4.70;;
31770;SDS011;18343;50.152;8.182;2023-05-31T04:23:09;10.27;;;4.80;;
31770;SDS011;18343;50.152;8.182;2023-05-31T04:25:53;12.65;;;4.80;;
31770;SDS011;18343;50.152;8.182;2023-05-31T04:28:39;9.52;;;4.95;;
31770;SDS011;18343;50.152;8.182;2023-05-31T04:31:24;9.93;;;4.93;;
31770;SDS011;18343;50.152;8.182;2023-05-31T04:34:09;14.75;;;6.18;;
31770;SDS011;18343;50.152;8.182;2023-05-31T04:36:53;13.90;;;5.32;;
31770;SDS011;18343;50.152;8.182;2023-05-31T04:39:38;11.38;;;5.03;;
31770;SDS011;18343;50.152;8.182;2023-05-31T04:42:22;11.23;;;5.25;;
31770;SDS011;18343;50.152;8.182;2023-05-31T04:45:09;9.95;;;4.68;;
31770;SDS011;18343;50.152;8.182;2023-05-31T04:47:54;11.38;;;5.40;;
31770;SDS011;18343;50.152;8.182;2023-05-31T04:50:38;10.68;;;5.18;;
31770;SDS011;18343;50.152;8.182;2023-05-31T04:53:23;11.75;;;4.95;;
31770;SDS011;18343;50.152;8.182;2023-05-31T04:56:07;9.25;;;4.50;;
31770;SDS011;18343;50.152;8.182;2023-05-31T04:58:52;14.70;;;6.53;;
31770;SDS011;18343;50.152;8.182;2023-05-31T05:01:41;18.67;;;5.60;;
31770;SDS011;18343;50.152;8.182;2023-05-31T05:04:25;7.53;;;4.95;;
31770;SDS011;18343;50.152;8.182;2023-05-31T05:07:10;12.77;;;5.03;;
31770;SDS011;18343;50.152;8.182;2023-05-31T05:09:55;13.63;;;5.13;;
31770;SDS011;18343;50.152;8.182;2023-05-31T05:12:39;11.68;;;5.93;;
31770;SDS011;18343;50.152;8.182;2023-05-31T05:15:24;12.68;;;5.57;;
31770;SDS011;18343;50.152;8.182;2023-05-31T05:18:10;12.75;;;5.68;;
31770;SDS011;18343;50.152;8.182;2023-05-31T05:20:55;12.13;;;5.03;;
31770;SDS011;18343;50.152;8.182;2023-05-31T05:23:39;15.45;;;5.75;;
31770;SDS011;18343;50.152;8.182;2023-05-31T05:26:24;12.95;;;5.97;;
31770;SDS011;18343;50.152;8.182;2023-05-31T05:29:09;17.02;;;6.18;;
31770;SDS011;18343;50.152;8.182;2023-05-31T05:31:54;13.40;;;6.10;;
31770;SDS011;18343;50.152;8.182;2023-05-31T05:34:40;15.13;;;5.65;;
31770;SDS011;18343;50.152;8.182;2023-05-31T05:37:25;15.00;;;5.80;;
31770;SDS011;18343;50.152;8.182;2023-05-31T05:40:09;16.65;;;5.22;;
31770;SDS011;18343;50.152;8.182;2023-05-31T05:42:55;14.50;;;6.03;;
31770;SDS011;18343;50.152;8.182;2023-05-31T05:45:39;9.98;;;5.07;;
31770;SDS011;18343;50.152;8.182;2023-05-31T05:48:24;15.82;;;5.35;;
31770;SDS011;18343;50.152;8.182;2023-05-31T05:51:10;13.13;;;4.30;;
31770;SDS011;18343;50.152;8.182;2023-05-31T05:53:55;11.20;;;4.72;;
31770;SDS011;18343;50.152;8.182;2023-05-31T05:56:39;12.20;;;4.68;;
31770;SDS011;18343;50.152;8.182;2023-05-31T05:59:24;11.68;;;4.60;;
31770;SDS011;18343;50.152;8.182;2023-05-31T06:02:09;15.65;;;5.63;;
31770;SDS011;18343;50.152;8.182;2023-05-31T06:04:53;13.07;;;4.40;;
31770;SDS011;18343;50.152;8.182;2023-05-31T06:07:39;14.63;;;4.35;;
31770;SDS011;18343;50.152;8.182;2023-05-31T06:10:24;13.32;;;4.78;;
31770;SDS011;18343;50.152;8.182;2023-05-31T06:13:09;11.07;;;3.97;;
31770;SDS011;18343;50.152;8.182;2023-05-31T06:15:53;9.35;;;3.78;;
31770;SDS011;18343;50.152;8.182;2023-05-31T06:18:38;11.07;;;3.60;;
31770;SDS011;18343;50.152;8.182;2023-05-31T06:21:22;11.50;;;4.25;;
31770;SDS011;18343;50.152;8.182;2023-05-31T06:24:08;12.10;;;3.60;;
31770;SDS011;18343;50.152;8.182;2023-05-31T06:26:53;14.48;;;3.08;;
31770;SDS011;18343;50.152;8.182;2023-05-31T06:29:39;6.60;;;3.47;;
31770;SDS011;18343;50.152;8.182;2023-05-31T06:32:24;5.25;;;2.83;;
31770;SDS011;18343;50.152;8.182;2023-05-31T06:35:08;10.15;;;3.03;;
31770;SDS011;18343;50.152;8.182;2023-05-31T06:37:53;10.73;;;3.33;;
31770;SDS011;18343;50.152;8.182;2023-05-31T06:40:39;8.07;;;3.10;;
31770;SDS011;18343;50.152;8.182;2023-05-31T06:43:24;12.40;;;3.53;;
31770;SDS011;18343;50.152;8.182;2023-05-31T06:46:09;7.82;;;2.72;;
31770;SDS011;18343;50.152;8.182;2023-05-31T06:48:54;5.43;;;3.03;;
31770;SDS011;18343;50.152;8.182;2023-05-31T06:51:38;12.15;;;3.13;;
31770;SDS011;18343;50.152;8.182;2023-05-31T06:54:23;8.05;;;3.00;;
31770;SDS011;18343;50.152;8.182;2023-05-31T06:57:09;7.45;;;3.38;;
31770;SDS011;18343;50.152;8.182;2023-05-31T06:59:53;10.45;;;3.17;;
31770;SDS011;18343;50.152;8.182;2023-05-31T07:02:38;6.53;;;3.28;;
31770;SDS011;18343;50.152;8.182;2023-05-31T07:05:23;9.88;;;3.30;;
31770;SDS011;18343;50.152;8.182;2023-05-31T07:08:08;11.45;;;3.30;;
31770;SDS011;18343;50.152;8.182;2023-05-31T07:10:55;9.02;;;3.13;;
31770;SDS011;18343;50.152;8.182;2023-05-31T07:13:41;7.63;;;3.35;;
31770;SDS011;18343;50.152;8.182;2023-05-31T07:16:26;13.10;;;3.53;;
31770;SDS011;18343;50.152;8.182;2023-05-31T07:19:10;6.90;;;3.22;;
31770;SDS011;18343;50.152;8.182;2023-05-31T07:21:55;8.77;;;2.90;;
31770;SDS011;18343;50.152;8.182;2023-05-31T07:24:39;8.88;;;2.80;;
31770;SDS011;18343;50.152;8.182;2023-05-31T07:27:24;14.75;;;3.65;;
31770;SDS011;18343;50.152;8.182;2023-05-31T07:30:10;8.70;;;3.20;;
31770;SDS011;18343;50.152;8.182;2023-05-31T07:32:54;7.47;;;2.45;;
31770;SDS011;18343;50.152;8.182;2023-05-31T07:35:39;6.18;;;2.20;;
31770;SDS011;18343;50.152;8.182;2023-05-31T07:38:25;4.97;;;1.85;;
31770;SDS011;18343;50.152;8.182;2023-05-31T07:41:10;8.18;;;2.20;;
31770;SDS011;18343;50.152;8.182;2023-05-31T07:43:55;8.20;;;2.63;;
31770;SDS011;18343;50.152;8.182;2023-05-31T07:46:41;6.32;;;2.40;;
31770;SDS011;18343;50.152;8.182;2023-05-31T07:49:27;5.93;;;2.25;;
31770;SDS011;18343;50.152;8.182;2023-05-31T07:52:13;12.50;;;1.98;;
31770;SDS011;18343;50.152;8.182;2023-05-31T07:54:58;6.85;;;2.38;;
31770;SDS011;18343;50.152;8.182;2023-05-31T07:57:43;4.75;;;1.98;;
31770;SDS011;18343;50.152;8.182;2023-05-31T08:00:27;3.30;;;2.10;;
31770;SDS011;18343;50.152;8.182;2023-05-31T08:03:14;6.88;;;2.20;;
31770;SDS011;18343;50.152;8.182;2023-05-31T08:05:58;6.05;;;2.25;;
31770;SDS011;18343;50.152;8.182;2023-05-31T08:08:46;6.65;;;1.85;;
31770;SDS011;18343;50.152;8.182;2023-05-31T08:11:31;4.57;;;2.00;;
31770;SDS011;18343;50.152;8.182;2023-05-31T08:14:15;6.40;;;1.83;;
31770;SDS011;18343;50.152;8.182;2023-05-31T08:17:00;4.57;;;2.17;;
31770;SDS011;18343;50.152;8.182;2023-05-31T08:19:46;7.88;;;2.33;;
31770;SDS011;18343;50.152;8.182;2023-05-31T08:22:30;7.28;;;2.20;;
31770;SDS011;18343;50.152;8.182;2023-05-31T08:25:15;7.13;;;2.65;;
31770;SDS011;18343;50.152;8.182;2023-05-31T08:28:00;4.72;;;1.90;;
31770;SDS011;18343;50.152;8.182;2023-05-31T08:30:44;7.57;;;1.95;;
31770;SDS011;18343;50.152;8.182;2023-05-31T08:33:32;2.80;;;1.70;;
31770;SDS011;18343;50.152;8.182;2023-05-31T08:36:18;8.00;;;1.98;;
31770;SDS011;18343;50.152;8.182;2023-05-31T08:39:03;5.32;;;2.08;;
31770;SDS011;18343;50.152;8.182;2023-05-31T08:41:48;6.68;;;2.20;;
31770;SDS011;18343;50.152;8.182;2023-05-31T08:44:42;8.25;;;2.35;;
31770;SDS011;18343;50.152;8.182;2023-05-31T08:47:27;6.00;;;2.28;;
31770;SDS011;18343;50.152;8.182;2023-05-31T08:50:23;2.92;;;1.70;;
31770;SDS011;18343;50.152;8.182;2023-05-31T08:53:11;5.18;;;2.08;;
31770;SDS011;18343;50.152;8.182;2023-05-31T08:56:01;11.57;;;2.50;;
31770;SDS011;18343;50.152;8.182;2023-05-31T08:58:48;5.43;;;1.95;;
31770;SDS011;18343;50.152;8.182;2023-05-31T09:01:34;6.47;;;2.00;;
31770;SDS011;18343;50.152;8.182;2023-05-31T09:04:21;8.20;;;2.20;;
31770;SDS011;18343;50.152;8.182;2023-05-31T09:07:06;5.78;;;2.03;;
31770;SDS011;18343;50.152;8.182;2023-05-31T09:09:52;4.63;;;2.13;;
31770;SDS011;18343;50.152;8.182;2023-05-31T09:12:36;3.42;;;1.73;;
31770;SDS011;18343;50.152;8.182;2023-05-31T09:15:22;3.88;;;2.20;;
31770;SDS011;18343;50.152;8.182;2023-05-31T09:18:12;2.78;;;1.80;;
31770;SDS011;18343;50.152;8.182;2023-05-31T09:20:57;4.55;;;2.05;;
31770;SDS011;18343;50.152;8.182;2023-05-31T09:23:53;6.43;;;1.90;;
31770;SDS011;18343;50.152;8.182;2023-05-31T09:26:46;3.72;;;2.50;;
31770;SDS011;18343;50.152;8.182;2023-05-31T09:29:31;4.55;;;1.73;;
31770;SDS011;18343;50.152;8.182;2023-05-31T09:32:16;4.22;;;2.10;;
31770;SDS011;18343;50.152;8.182;2023-05-31T09:35:09;4.65;;;2.05;;
31770;SDS011;18343;50.152;8.182;2023-05-31T09:37:55;4.38;;;1.80;;
31770;SDS011;18343;50.152;8.182;2023-05-31T09:40:40;9.85;;;1.90;;
31770;SDS011;18343;50.152;8.182;2023-05-31T09:43:29;5.93;;;2.10;;
31770;SDS011;18343;50.152;8.182;2023-05-31T09:46:14;7.50;;;2.13;;
31770;SDS011;18343;50.152;8.182;2023-05-31T09:49:01;9.73;;;2.10;;
31770;SDS011;18343;50.152;8.182;2023-05-31T09:51:50;10.52;;;1.80;;
31770;SDS011;18343;50.152;8.182;2023-05-31T09:54:35;7.35;;;2.05;;
31770;SDS011;18343;50.152;8.182;2023-05-31T09:57:30;4.22;;;1.98;;
31770;SDS011;18343;50.152;8.182;2023-05-31T10:00:18;3.00;;;1.67;;
31770;SDS011;18343;50.152;8.182;2023-05-31T10:03:03;4.28;;;1.83;;
31770;SDS011;18343;50.152;8.182;2023-05-31T10:05:48;9.80;;;2.20;;
31770;SDS011;18343;50.152;8.182;2023-05-31T10:08:33;5.95;;;2.40;;
31770;SDS011;18343;50.152;8.182;2023-05-31T10:11:19;7.88;;;2.15;;
31770;SDS011;18343;50.152;8.182;2023-05-31T10:14:14;6.28;;;2.22;;
31770;SDS011;18343;50.152;8.182;2023-05-31T10:17:09;3.42;;;2.00;;
31770;SDS011;18343;50.152;8.182;2023-05-31T10:20:03;6.82;;;2.30;;
31770;SDS011;18343;50.152;8.182;2023-05-31T10:22:50;4.15;;;2.05;;
31770;SDS011;18343;50.152;8.182;2023-05-31T10:25:43;5.53;;;2.00;;
31770;SDS011;18343;50.152;8.182;2023-05-31T10:28:36;7.90;;;1.80;;
31770;SDS011;18343;50.152;8.182;2023-05-31T10:31:28;4.60;;;1.80;;
31770;SDS011;18343;50.152;8.182;2023-05-31T10:34:22;6.07;;;2.10;;
31770;SDS011;18343;50.152;8.182;2023-05-31T10:37:09;4.20;;;1.70;;
31770;SDS011;18343;50.152;8.182;2023-05-31T10:39:56;6.10;;;1.70;;
31770;SDS011;18343;50.152;8.182;2023-05-31T10:42:51;7.55;;;1.98;;
31770;SDS011;18343;50.152;8.182;2023-05-31T10:45:45;7.28;;;1.75;;
31770;SDS011;18343;50.152;8.182;2023-05-31T10:48:38;7.20;;;2.00;;
31770;SDS011;18343;50.152;8.182;2023-05-31T10:51:40;4.60;;;2.03;;
31770;SDS011;18343;50.152;8.182;2023-05-31T10:54:29;5.43;;;2.50;;
31770;SDS011;18343;50.152;8.182;2023-05-31T10:57:16;4.13;;;1.65;;
31770;SDS011;18343;50.152;8.182;2023-05-31T11:00:01;2.13;;;1.58;;
31770;SDS011;18343;50.152;8.182;2023-05-31T11:02:47;4.80;;;1.92;;
31770;SDS011;18343;50.152;8.182;2023-05-31T11:05:32;4.28;;;2.15;;
31770;SDS011;18343;50.152;8.182;2023-05-31T11:08:19;8.25;;;2.15;;
31770;SDS011;18343;50.152;8.182;2023-05-31T11:14:27;6.13;;;2.00;;
31770;SDS011;18343;50.152;8.182;2023-05-31T11:17:15;4.03;;;1.50;;
31770;SDS011;18343;50.152;8.182;2023-05-31T11:20:00;4.30;;;1.90;;
31770;SDS011;18343;50.152;8.182;2023-05-31T11:22:45;5.05;;;2.00;;
31770;SDS011;18343;50.152;8.182;2023-05-31T11:25:31;8.82;;;2.00;;
31770;SDS011;18343;50.152;8.182;2023-05-31T11:28:18;2.67;;;1.48;;
31770;SDS011;18343;50.152;8.182;2023-05-31T11:31:03;12.30;;;2.08;;
31770;SDS011;18343;50.152;8.182;2023-05-31T11:33:48;5.50;;;1.88;;
31770;SDS011;18343;50.152;8.182;2023-05-31T11:36:32;4.82;;;1.38;;
31770;SDS011;18343;50.152;8.182;2023-05-31T11:39:17;5.82;;;1.73;;
31770;SDS011;18343;50.152;8.182;2023-05-31T11:42:04;7.63;;;1.63;;
31770;SDS011;18343;50.152;8.182;2023-05-31T11:44:51;5.97;;;1.60;;
31770;SDS011;18343;50.152;8.182;2023-05-31T11:47:38;5.60;;;1.88;;
31770;SDS011;18343;50.152;8.182;2023-05-31T11:50:33;8.50;;;2.13;;
31770;SDS011;18343;50.152;8.182;2023-05-31T11:53:18;7.22;;;1.88;;
31770;SDS011;18343;50.152;8.182;2023-05-31T11:56:02;3.40;;;1.83;;
31770;SDS011;18343;50.152;8.182;2023-05-31T11:58:50;4.75;;;1.83;;
31770;SDS011;18343;50.152;8.182;2023-05-31T12:01:39;6.57;;;2.60;;
31770;SDS011;18343;50.152;8.182;2023-05-31T12:04:27;3.35;;;1.60;;
31770;SDS011;18343;50.152;8.182;2023-05-31T12:07:16;4.60;;;1.90;;
31770;SDS011;18343;50.152;8.182;2023-05-31T12:10:03;3.22;;;1.85;;
31770;SDS011;18343;50.152;8.182;2023-05-31T12:12:49;5.38;;;1.98;;
31770;SDS011;18343;50.152;8.182;2023-05-31T12:15:35;5.55;;;2.00;;
31770;SDS011;18343;50.152;8.182;2023-05-31T12:18:20;2.65;;;1.70;;
31770;SDS011;18343;50.152;8.182;2023-05-31T12:21:06;3.38;;;1.50;;
31770;SDS011;18343;50.152;8.182;2023-05-31T12:23:53;6.00;;;1.90;;
31770;SDS011;18343;50.152;8.182;2023-05-31T12:26:38;4.60;;;1.70;;
31770;SDS011;18343;50.152;8.182;2023-05-31T12:29:26;15.38;;;2.10;;
31770;SDS011;18343;50.152;8.182;2023-05-31T12:32:15;8.88;;;1.65;;
31770;SDS011;18343;50.152;8.182;2023-05-31T12:35:04;8.48;;;1.90;;
31770;SDS011;18343;50.152;8.182;2023-05-31T12:37:51;8.30;;;1.98;;
31770;SDS011;18343;50.152;8.182;2023-05-31T12:40:36;3.97;;;1.90;;
31770;SDS011;18343;50.152;8.182;2023-05-31T12:43:23;2.70;;;1.67;;
31770;SDS011;18343;50.152;8.182;2023-05-31T12:46:08;11.43;;;2.35;;
31770;SDS011;18343;50.152;8.182;2023-05-31T12:48:53;5.78;;;1.70;;
31770;SDS011;18343;50.152;8.182;2023-05-31T12:51:38;6.32;;;1.70;;
31770;SDS011;18343;50.152;8.182;2023-05-31T12:54:24;11.15;;;2.50;;
31770;SDS011;18343;50.152;8.182;2023-05-31T12:57:11;4.57;;;2.00;;
31770;SDS011;18343;50.152;8.182;2023-05-31T12:59:59;4.35;;;1.80;;
31770;SDS011;18343;50.152;8.182;2023-05-31T13:02:44;4.22;;;1.70;;
31770;SDS011;18343;50.152;8.182;2023-05-31T13:05:30;3.78;;;1.83;;
31770;SDS011;18343;50.152;8.182;2023-05-31T13:08:15;3.90;;;1.70;;
31770;SDS011;18343;50.152;8.182;2023-05-31T13:10:59;8.73;;;2.10;;
31770;SDS011;18343;50.152;8.182;2023-05-31T13:13:44;5.47;;;1.90;;
31770;SDS011;18343;50.152;8.182;2023-05-31T13:16:29;6.82;;;2.00;;
31770;SDS011;18343;50.152;8.182;2023-05-31T13:19:14;3.25;;;1.80;;
31770;SDS011;18343;50.152;8.182;2023-05-31T13:22:00;7.20;;;1.75;;
31770;SDS011;18343;50.152;8.182;2023-05-31T13:24:46;3.22;;;2.08;;
31770;SDS011;18343;50.152;8.182;2023-05-31T13:27:31;6.30;;;1.98;;
31770;SDS011;18343;50.152;8.182;2023-05-31T13:30:16;5.68;;;1.88;;
31770;SDS011;18343;50.152;8.182;2023-05-31T13:33:01;5.03;;;1.77;;
31770;SDS011;18343;50.152;8.182;2023-05-31T13:35:45;5.68;;;1.60;;
31770;SDS011;18343;50.152;8.182;2023-05-31T13:38:31;4.50;;;1.63;;
31770;SDS011;18343;50.152;8.182;2023-05-31T13:41:16;4.72;;;2.10;;
31770;SDS011;18343;50.152;8.182;2023-05-31T13:44:02;4.20;;;1.65;;
31770;SDS011;18343;50.152;8.182;2023-05-31T13:46:48;3.13;;;1.40;;
31770;SDS011;18343;50.152;8.182;2023-05-31T13:49:33;6.18;;;1.80;;
31770;SDS011;18343;50.152;8.182;2023-05-31T13:52:18;17.83;;;3.17;;
31770;SDS011;18343;50.152;8.182;2023-05-31T13:55:05;11.48;;;2.35;;
31770;SDS011;18343;50.152;8.182;2023-05-31T13:57:51;9.18;;;2.08;;
31770;SDS011;18343;50.152;8.182;2023-05-31T14:00:35;3.85;;;1.70;;
31770;SDS011;18343;50.152;8.182;2023-05-31T14:03:20;7.63;;;2.17;;
31770;SDS011;18343;50.152;8.182;2023-05-31T14:06:04;9.55;;;2.22;;
31770;SDS011;18343;50.152;8.182;2023-05-31T14:08:50;4.53;;;1.60;;
31770;SDS011;18343;50.152;8.182;2023-05-31T14:11:35;7.88;;;1.95;;
31770;SDS011;18343;50.152;8.182;2023-05-31T14:14:22;3.70;;;1.73;;
31770;SDS011;18343;50.152;8.182;2023-05-31T14:17:07;4.30;;;2.00;;
31770;SDS011;18343;50.152;8.182;2023-05-31T14:19:51;3.05;;;1.70;;
31770;SDS011;18343;50.152;8.182;2023-05-31T14:22:36;7.15;;;1.98;;
31770;SDS011;18343;50.152;8.182;2023-05-31T14:25:21;6.40;;;1.58;;
31770;SDS011;18343;50.152;8.182;2023-05-31T14:28:07;7.20;;;2.03;;
31770;SDS011;18343;50.152;8.182;2023-05-31T14:30:51;2.80;;;1.45;;
31770;SDS011;18343;50.152;8.182;2023-05-31T14:33:38;2.53;;;1.50;;
31770;SDS011;18343;50.152;8.182;2023-05-31T14:36:22;4.07;;;1.85;;
31770;SDS011;18343;50.152;8.182;2023-05-31T14:39:07;4.00;;;2.20;;
31770;SDS011;18343;50.152;8.182;2023-05-31T14:41:51;6.38;;;1.80;;
31770;SDS011;18343;50.152;8.182;2023-05-31T14:44:40;5.32;;;1.95;;
31770;SDS011;18343;50.152;8.182;2023-05-31T14:47:24;6.53;;;1.92;;
31770;SDS011;18343;50.152;8.182;2023-05-31T14:50:09;3.47;;;1.92;;
31770;SDS011;18343;50.152;8.182;2023-05-31T14:52:54;5.82;;;1.90;;
31770;SDS011;18343;50.152;8.182;2023-05-31T14:55:38;4.93;;;1.88;;
31770;SDS011;18343;50.152;8.182;2023-05-31T14:58:24;6.15;;;3.10;;
31770;SDS011;18343;50.152;8.182;2023-05-31T15:01:10;9.43;;;2.15;;
31770;SDS011;18343;50.152;8.182;2023-05-31T15:03:55;4.18;;;1.95;;
31770;SDS011;18343;50.152;8.182;2023-05-31T15:06:41;10.45;;;2.20;;
31770;SDS011;18343;50.152;8.182;2023-05-31T15:09:26;5.68;;;1.88;;
31770;SDS011;18343;50.152;8.182;2023-05-31T15:12:10;7.60;;;2.00;;
31770;SDS011;18343;50.152;8.182;2023-05-31T15:14:55;9.15;;;2.05;;
31770;SDS011;18343;50.152;8.182;2023-05-31T15:17:41;5.40;;;1.67;;
31770;SDS011;18343;50.152;8.182;2023-05-31T15:20:25;7.70;;;2.00;;
31770;SDS011;18343;50.152;8.182;2023-05-31T15:23:10;7.28;;;1.80;;
31770;SDS011;18343;50.152;8.182;2023-05-31T15:25:55;2.92;;;1.90;;
31770;SDS011;18343;50.152;8.182;2023-05-31T15:28:39;5.45;;;2.08;;
31770;SDS011;18343;50.152;8.182;2023-05-31T15:31:24;6.55;;;1.98;;
31770;SDS011;18343;50.152;8.182;2023-05-31T15:34:10;7.03;;;1.63;;
31770;SDS011;18343;50.152;8.182;2023-05-31T15:36:55;5.80;;;1.98;;
31770;SDS011;18343;50.152;8.182;2023-05-31T15:39:40;7.63;;;1.70;;
31770;SDS011;18343;50.152;8.182;2023-05-31T15:42:24;6.78;;;1.98;;
31770;SDS011;18343;50.152;8.182;2023-05-31T15:45:09;4.82;;;2.00;;
31770;SDS011;18343;50.152;8.182;2023-05-31T15:47:54;5.38;;;1.85;;
31770;SDS011;18343;50.152;8.182;2023-05-31T15:50:40;6.30;;;2.20;;
31770;SDS011;18343;50.152;8.182;2023-05-31T15:53:25;5.45;;;1.90;;
31770;SDS011;18343;50.152;8.182;2023-05-31T15:56:09;3.35;;;1.80;;
31770;SDS011;18343;50.152;8.182;2023-05-31T15:58:54;6.25;;;1.80;;
31770;SDS011;18343;50.152;8.182;2023-05-31T16:01:38;4.13;;;1.40;;
31770;SDS011;18343;50.152;8.182;2023-05-31T16:04:23;7.00;;;1.88;;
31770;SDS011;18343;50.152;8.182;2023-05-31T16:07:09;4.18;;;1.83;;
31770;SDS011;18343;50.152;8.182;2023-05-31T16:09:54;3.05;;;1.77;;
31770;SDS011;18343;50.152;8.182;2023-05-31T16:12:38;8.50;;;2.00;;
31770;SDS011;18343;50.152;8.182;2023-05-31T16:15:24;4.88;;;1.90;;
31770;SDS011;18343;50.152;8.182;2023-05-31T16:18:09;9.80;;;2.00;;
31770;SDS011;18343;50.152;8.182;2023-05-31T16:20:54;5.35;;;1.95;;
31770;SDS011;18343;50.152;8.182;2023-05-31T16:23:42;3.15;;;1.67;;
31770;SDS011;18343;50.152;8.182;2023-05-31T16:26:28;4.82;;;1.80;;
31770;SDS011;18343;50.152;8.182;2023-05-31T16:29:12;4.43;;;2.38;;
31770;SDS011;18343;50.152;8.182;2023-05-31T16:31:57;8.30;;;5.03;;
31770;SDS011;18343;50.152;8.182;2023-05-31T16:34:42;7.47;;;3.20;;
31770;SDS011;18343;50.152;8.182;2023-05-31T16:37:27;6.82;;;3.58;;
31770;SDS011;18343;50.152;8.182;2023-05-31T16:40:13;6.07;;;2.08;;